Altamont, Missouri
Current Conditions -  °F | °C
As of 6:15 PM on Saturday 25 Oct 2014 (Local Time) from KGPH Reporting Station
Clear Clear  
Wind Chill: 77°   Ceiling: Unl
Heat Index: 78°   Visibility: 10mi
Dew Point: 50°   Wind: 0mph
Humidity: 39%   Direction: NA
Pressure: 30.01"   Gusts: NA
Location:  39.89°N, 94.09°W
Report Text: KGPH 252315Z AUTO 00000KT 10SM CLR 25/10 A3001 RMK AO2
Loading
Personal Weather Stations






























Interactive Weather Map New forecast layout! Learn more

10-Day Weather Forecast

Advertisements
Track Severe Weather on mobile